Minneapolis-Saint Paul International Airport

Airport
ICAO code: 
KMSP
IATA Code: 
MSP
Summary
ICAO Region: 
NAM
Territory: 
Location: 
Minneapolis, Minnesota,
Serving: 
Hennepin County
Elevation: 
841 ft
Coordinates: 
Aerial View: 
44° 52' 57.659" N, 93° 13' 14.76" W
Airport CFIT: 
Altimeter Temperature Error Correction
Airport GND: 
Aircraft Ground De/Anti Icing
Airport LOS: 
Parallel Runway Operation
Metar
Observation
KMSP 290553Z 10003KT 10SM BKN160 00/M10 A3001 RMK AO2 SLP173 T00001100 10017 21006 400391044 58017
Station
Minneapolis, Minneapolis-St. Paul International Airport
Date/Time
2021-11-29 05:53:00
Wind direction
100°
Wind speed
03 kts
Lowest cloud amount
broken clouds
Temperature
0°C
Dew point
-10°C
Humidity
46%
Weather condition
n/a

Description

International airport serving Minneapolis St Paul, USA

Climatology

Humid continental climate (Köppen climate classification Dfa) - characterized by four seasons: cold, windy, snowy winters, mild springs, hot, humid summers, and crisp and relatively short autumns. Precipitation reaches its lowest in January and February and peaks in summer and latter half of spring.

Runways

Designator Length Width Surface Rops
12L/30R 2438 46 PEM Yes/Yes
17/35 2438 46 CON Yes/Yes
12R/30L 3048 61 PEM Yes/Yes
4/22 3355 46 CON Yes/Yes
Airport map: 
Aerial View: 

SKYbrary Partners:

Safety knowledge contributed by: